sensor_id;sensor_type;location;lat;lon;timestamp;temperature;humidity
21502;DHT22;27639;48.674;9.242;2023-09-07T00:00:46;21.70;52.60
21502;DHT22;27639;48.674;9.242;2023-09-07T00:03:13;21.70;52.60
21502;DHT22;27639;48.674;9.242;2023-09-07T00:05:39;21.70;52.60
21502;DHT22;27639;48.674;9.242;2023-09-07T00:08:04;21.70;52.70
21502;DHT22;27639;48.674;9.242;2023-09-07T00:10:31;21.70;52.50
21502;DHT22;27639;48.674;9.242;2023-09-07T00:13:01;21.60;52.50
21502;DHT22;27639;48.674;9.242;2023-09-07T00:15:28;21.50;52.50
21502;DHT22;27639;48.674;9.242;2023-09-07T00:17:53;21.50;52.70
21502;DHT22;27639;48.674;9.242;2023-09-07T00:20:20;21.50;52.80
21502;DHT22;27639;48.674;9.242;2023-09-07T00:22:47;21.40;52.80
21502;DHT22;27639;48.674;9.242;2023-09-07T00:25:12;21.40;53.10
21502;DHT22;27639;48.674;9.242;2023-09-07T00:27:39;21.30;53.20
21502;DHT22;27639;48.674;9.242;2023-09-07T00:30:05;21.30;53.60
21502;DHT22;27639;48.674;9.242;2023-09-07T00:32:32;21.20;53.40
21502;DHT22;27639;48.674;9.242;2023-09-07T00:34:59;21.10;53.50
21502;DHT22;27639;48.674;9.242;2023-09-07T00:37:24;21.10;53.70
21502;DHT22;27639;48.674;9.242;2023-09-07T00:39:50;21.00;53.90
21502;DHT22;27639;48.674;9.242;2023-09-07T00:42:18;21.00;53.90
21502;DHT22;27639;48.674;9.242;2023-09-07T00:44:43;20.90;54.00
21502;DHT22;27639;48.674;9.242;2023-09-07T00:47:09;20.90;54.20
21502;DHT22;27639;48.674;9.242;2023-09-07T00:49:35;20.80;54.30
21502;DHT22;27639;48.674;9.242;2023-09-07T00:52:01;20.70;54.40
21502;DHT22;27639;48.674;9.242;2023-09-07T00:54:26;20.70;54.50
21502;DHT22;27639;48.674;9.242;2023-09-07T00:56:54;20.70;54.50
21502;DHT22;27639;48.674;9.242;2023-09-07T00:59:20;20.70;54.40
21502;DHT22;27639;48.674;9.242;2023-09-07T01:01:45;20.70;54.40
21502;DHT22;27639;48.674;9.242;2023-09-07T01:04:11;20.70;54.50
21502;DHT22;27639;48.674;9.242;2023-09-07T01:06:39;20.70;54.50
21502;DHT22;27639;48.674;9.242;2023-09-07T01:09:14;20.60;54.50
21502;DHT22;27639;48.674;9.242;2023-09-07T01:11:42;20.60;54.60
21502;DHT22;27639;48.674;9.242;2023-09-07T01:14:08;20.50;54.70
21502;DHT22;27639;48.674;9.242;2023-09-07T01:16:33;20.50;54.90
21502;DHT22;27639;48.674;9.242;2023-09-07T01:19:00;20.50;55.00
21502;DHT22;27639;48.674;9.242;2023-09-07T01:21:32;20.40;55.00
21502;DHT22;27639;48.674;9.242;2023-09-07T01:23:59;20.40;55.00
21502;DHT22;27639;48.674;9.242;2023-09-07T01:26:25;20.40;55.00
21502;DHT22;27639;48.674;9.242;2023-09-07T01:28:51;20.40;55.00
21502;DHT22;27639;48.674;9.242;2023-09-07T01:31:17;20.40;55.00
21502;DHT22;27639;48.674;9.242;2023-09-07T01:33:42;20.30;55.00
21502;DHT22;27639;48.674;9.242;2023-09-07T01:36:08;20.30;55.10
21502;DHT22;27639;48.674;9.242;2023-09-07T01:38:34;20.30;55.20
21502;DHT22;27639;48.674;9.242;2023-09-07T01:40:59;20.30;55.10
21502;DHT22;27639;48.674;9.242;2023-09-07T01:43:25;20.30;55.00
21502;DHT22;27639;48.674;9.242;2023-09-07T01:45:50;20.30;55.00
21502;DHT22;27639;48.674;9.242;2023-09-07T01:48:16;20.30;55.60
21502;DHT22;27639;48.674;9.242;2023-09-07T01:50:42;20.30;55.00
21502;DHT22;27639;48.674;9.242;2023-09-07T01:56:29;20.10;54.80
21502;DHT22;27639;48.674;9.242;2023-09-07T01:58:54;20.00;55.10
21502;DHT22;27639;48.674;9.242;2023-09-07T02:01:24;20.00;55.30
21502;DHT22;27639;48.674;9.242;2023-09-07T02:03:50;20.00;55.40
21502;DHT22;27639;48.674;9.242;2023-09-07T02:06:16;20.00;55.60
21502;DHT22;27639;48.674;9.242;2023-09-07T02:08:41;19.90;55.60
21502;DHT22;27639;48.674;9.242;2023-09-07T02:11:07;19.90;55.80
21502;DHT22;27639;48.674;9.242;2023-09-07T02:13:33;19.80;55.80
21502;DHT22;27639;48.674;9.242;2023-09-07T02:15:58;19.70;55.90
21502;DHT22;27639;48.674;9.242;2023-09-07T02:18:28;19.70;56.10
21502;DHT22;27639;48.674;9.242;2023-09-07T02:20:53;19.70;56.20
21502;DHT22;27639;48.674;9.242;2023-09-07T02:23:19;19.70;56.30
21502;DHT22;27639;48.674;9.242;2023-09-07T02:25:44;19.70;56.30
21502;DHT22;27639;48.674;9.242;2023-09-07T02:28:10;19.70;56.40
21502;DHT22;27639;48.674;9.242;2023-09-07T02:30:35;19.60;56.50
21502;DHT22;27639;48.674;9.242;2023-09-07T02:33:01;19.60;56.40
21502;DHT22;27639;48.674;9.242;2023-09-07T02:35:26;19.60;56.50
21502;DHT22;27639;48.674;9.242;2023-09-07T02:37:52;19.50;56.50
21502;DHT22;27639;48.674;9.242;2023-09-07T02:40:18;19.50;56.50
21502;DHT22;27639;48.674;9.242;2023-09-07T02:42:43;19.40;56.50
21502;DHT22;27639;48.674;9.242;2023-09-07T02:45:12;19.50;56.50
21502;DHT22;27639;48.674;9.242;2023-09-07T02:47:39;19.50;56.40
21502;DHT22;27639;48.674;9.242;2023-09-07T02:50:04;19.50;56.20
21502;DHT22;27639;48.674;9.242;2023-09-07T02:52:30;19.50;56.10
21502;DHT22;27639;48.674;9.242;2023-09-07T02:54:56;19.50;56.00
21502;DHT22;27639;48.674;9.242;2023-09-07T02:57:22;19.50;55.90
21502;DHT22;27639;48.674;9.242;2023-09-07T02:59:47;19.50;55.80
21502;DHT22;27639;48.674;9.242;2023-09-07T03:02:13;19.50;55.80
21502;DHT22;27639;48.674;9.242;2023-09-07T03:04:38;19.50;55.80
21502;DHT22;27639;48.674;9.242;2023-09-07T03:07:04;19.50;56.00
21502;DHT22;27639;48.674;9.242;2023-09-07T03:09:29;19.50;56.20
21502;DHT22;27639;48.674;9.242;2023-09-07T03:11:56;19.40;56.10
21502;DHT22;27639;48.674;9.242;2023-09-07T03:14:22;19.40;56.30
21502;DHT22;27639;48.674;9.242;2023-09-07T03:16:47;19.30;56.40
21502;DHT22;27639;48.674;9.242;2023-09-07T03:19:15;19.30;56.50
21502;DHT22;27639;48.674;9.242;2023-09-07T03:21:41;19.20;56.60
21502;DHT22;27639;48.674;9.242;2023-09-07T03:24:06;19.20;56.60
21502;DHT22;27639;48.674;9.242;2023-09-07T03:26:32;19.10;56.70
21502;DHT22;27639;48.674;9.242;2023-09-07T03:28:58;19.00;56.80
21502;DHT22;27639;48.674;9.242;2023-09-07T03:31:23;19.00;56.90
21502;DHT22;27639;48.674;9.242;2023-09-07T03:33:49;18.90;57.00
21502;DHT22;27639;48.674;9.242;2023-09-07T03:36:15;18.90;57.10
21502;DHT22;27639;48.674;9.242;2023-09-07T03:38:41;18.90;57.20
21502;DHT22;27639;48.674;9.242;2023-09-07T03:41:07;18.80;57.30
21502;DHT22;27639;48.674;9.242;2023-09-07T03:43:32;18.80;57.30
21502;DHT22;27639;48.674;9.242;2023-09-07T03:45:58;18.80;57.40
21502;DHT22;27639;48.674;9.242;2023-09-07T03:48:23;18.70;57.40
21502;DHT22;27639;48.674;9.242;2023-09-07T03:50:49;18.70;57.40
21502;DHT22;27639;48.674;9.242;2023-09-07T03:53:15;18.60;57.30
21502;DHT22;27639;48.674;9.242;2023-09-07T03:55:41;18.60;57.30
21502;DHT22;27639;48.674;9.242;2023-09-07T03:58:10;18.60;57.30
21502;DHT22;27639;48.674;9.242;2023-09-07T04:00:40;18.70;57.40
21502;DHT22;27639;48.674;9.242;2023-09-07T04:03:09;18.70;57.40
21502;DHT22;27639;48.674;9.242;2023-09-07T04:05:37;18.60;57.30
21502;DHT22;27639;48.674;9.242;2023-09-07T04:08:04;18.60;57.40
21502;DHT22;27639;48.674;9.242;2023-09-07T04:10:30;18.60;57.50
21502;DHT22;27639;48.674;9.242;2023-09-07T04:12:55;18.60;57.40
21502;DHT22;27639;48.674;9.242;2023-09-07T04:15:21;18.70;57.40
21502;DHT22;27639;48.674;9.242;2023-09-07T04:17:46;18.60;57.30
21502;DHT22;27639;48.674;9.242;2023-09-07T04:20:12;18.60;57.30
21502;DHT22;27639;48.674;9.242;2023-09-07T04:22:39;18.60;57.30
21502;DHT22;27639;48.674;9.242;2023-09-07T04:25:05;18.60;57.90
21502;DHT22;27639;48.674;9.242;2023-09-07T04:27:31;18.60;57.30
21502;DHT22;27639;48.674;9.242;2023-09-07T04:29:56;18.60;57.30
21502;DHT22;27639;48.674;9.242;2023-09-07T04:32:22;18.60;57.40
21502;DHT22;27639;48.674;9.242;2023-09-07T04:34:55;18.50;57.30
21502;DHT22;27639;48.674;9.242;2023-09-07T04:37:22;18.50;57.40
21502;DHT22;27639;48.674;9.242;2023-09-07T04:39:51;18.40;57.40
21502;DHT22;27639;48.674;9.242;2023-09-07T04:42:18;18.40;57.60
21502;DHT22;27639;48.674;9.242;2023-09-07T04:44:43;18.40;57.70
21502;DHT22;27639;48.674;9.242;2023-09-07T04:47:09;18.30;57.60
21502;DHT22;27639;48.674;9.242;2023-09-07T04:49:35;18.30;57.60
21502;DHT22;27639;48.674;9.242;2023-09-07T04:52:00;18.30;57.60
21502;DHT22;27639;48.674;9.242;2023-09-07T04:54:26;18.40;57.70
21502;DHT22;27639;48.674;9.242;2023-09-07T04:56:51;18.30;57.60
21502;DHT22;27639;48.674;9.242;2023-09-07T04:59:17;18.40;57.40
21502;DHT22;27639;48.674;9.242;2023-09-07T05:01:43;18.30;57.40
21502;DHT22;27639;48.674;9.242;2023-09-07T05:04:08;18.40;57.10
21502;DHT22;27639;48.674;9.242;2023-09-07T05:06:34;18.40;57.80
21502;DHT22;27639;48.674;9.242;2023-09-07T05:09:03;18.40;57.00
21502;DHT22;27639;48.674;9.242;2023-09-07T05:11:28;18.50;57.00
21502;DHT22;27639;48.674;9.242;2023-09-07T05:13:54;18.40;56.70
21502;DHT22;27639;48.674;9.242;2023-09-07T05:16:20;18.50;57.00
21502;DHT22;27639;48.674;9.242;2023-09-07T05:18:45;18.40;56.90
21502;DHT22;27639;48.674;9.242;2023-09-07T05:21:14;18.50;57.00
21502;DHT22;27639;48.674;9.242;2023-09-07T05:23:40;18.40;57.10
21502;DHT22;27639;48.674;9.242;2023-09-07T05:26:06;18.40;57.30
21502;DHT22;27639;48.674;9.242;2023-09-07T05:28:32;18.40;57.50
21502;DHT22;27639;48.674;9.242;2023-09-07T05:30:57;18.40;57.60
21502;DHT22;27639;48.674;9.242;2023-09-07T05:33:23;18.40;57.50
21502;DHT22;27639;48.674;9.242;2023-09-07T05:35:48;18.40;57.50
21502;DHT22;27639;48.674;9.242;2023-09-07T05:38:14;18.40;57.90
21502;DHT22;27639;48.674;9.242;2023-09-07T05:40:42;18.40;58.10
21502;DHT22;27639;48.674;9.242;2023-09-07T05:43:09;18.40;58.60
21502;DHT22;27639;48.674;9.242;2023-09-07T05:45:37;18.70;59.10
21502;DHT22;27639;48.674;9.242;2023-09-07T05:48:03;18.90;58.60
21502;DHT22;27639;48.674;9.242;2023-09-07T05:50:29;19.00;58.20
21502;DHT22;27639;48.674;9.242;2023-09-07T05:52:54;19.00;57.90
21502;DHT22;27639;48.674;9.242;2023-09-07T05:55:20;18.90;58.00
21502;DHT22;27639;48.674;9.242;2023-09-07T05:57:46;18.90;58.20
21502;DHT22;27639;48.674;9.242;2023-09-07T06:00:12;18.80;58.40
21502;DHT22;27639;48.674;9.242;2023-09-07T06:02:39;18.80;58.50
21502;DHT22;27639;48.674;9.242;2023-09-07T06:05:04;19.00;58.70
21502;DHT22;27639;48.674;9.242;2023-09-07T06:07:30;19.20;59.50
21502;DHT22;27639;48.674;9.242;2023-09-07T06:09:56;19.60;59.90
21502;DHT22;27639;48.674;9.242;2023-09-07T06:12:24;20.20;59.70
21502;DHT22;27639;48.674;9.242;2023-09-07T06:14:49;20.80;59.10
21502;DHT22;27639;48.674;9.242;2023-09-07T06:17:15;21.20;58.50
21502;DHT22;27639;48.674;9.242;2023-09-07T06:19:41;21.40;57.30
21502;DHT22;27639;48.674;9.242;2023-09-07T06:22:06;21.60;56.70
21502;DHT22;27639;48.674;9.242;2023-09-07T06:24:32;21.70;56.00
21502;DHT22;27639;48.674;9.242;2023-09-07T06:26:57;21.70;55.40
21502;DHT22;27639;48.674;9.242;2023-09-07T06:29:23;21.80;55.30
21502;DHT22;27639;48.674;9.242;2023-09-07T06:31:48;22.00;55.10
21502;DHT22;27639;48.674;9.242;2023-09-07T06:34:15;22.10;54.90
21502;DHT22;27639;48.674;9.242;2023-09-07T06:36:41;22.20;54.70
21502;DHT22;27639;48.674;9.242;2023-09-07T06:39:06;22.30;54.50
21502;DHT22;27639;48.674;9.242;2023-09-07T06:41:32;22.40;54.50
21502;DHT22;27639;48.674;9.242;2023-09-07T06:43:58;22.50;54.30
21502;DHT22;27639;48.674;9.242;2023-09-07T06:46:24;22.60;53.70
21502;DHT22;27639;48.674;9.242;2023-09-07T06:48:50;22.70;53.50
21502;DHT22;27639;48.674;9.242;2023-09-07T06:51:15;22.80;53.50
21502;DHT22;27639;48.674;9.242;2023-09-07T06:53:41;22.80;53.30
21502;DHT22;27639;48.674;9.242;2023-09-07T06:56:07;22.80;53.60
21502;DHT22;27639;48.674;9.242;2023-09-07T06:58:32;22.70;53.60
21502;DHT22;27639;48.674;9.242;2023-09-07T07:01:00;22.70;53.50
21502;DHT22;27639;48.674;9.242;2023-09-07T07:03:30;22.70;53.90
21502;DHT22;27639;48.674;9.242;2023-09-07T07:05:56;22.80;53.90
21502;DHT22;27639;48.674;9.242;2023-09-07T07:08:22;22.90;53.80
21502;DHT22;27639;48.674;9.242;2023-09-07T07:10:48;23.00;53.60
21502;DHT22;27639;48.674;9.242;2023-09-07T07:13:14;23.10;53.50
21502;DHT22;27639;48.674;9.242;2023-09-07T07:15:39;23.20;53.60
21502;DHT22;27639;48.674;9.242;2023-09-07T07:18:05;23.30;53.60
21502;DHT22;27639;48.674;9.242;2023-09-07T07:20:43;23.40;53.50
21502;DHT22;27639;48.674;9.242;2023-09-07T07:23:10;23.50;53.30
21502;DHT22;27639;48.674;9.242;2023-09-07T07:25:36;23.60;53.50
21502;DHT22;27639;48.674;9.242;2023-09-07T07:28:03;23.60;53.50
21502;DHT22;27639;48.674;9.242;2023-09-07T07:30:34;23.70;53.40
21502;DHT22;27639;48.674;9.242;2023-09-07T07:33:01;23.70;53.60
21502;DHT22;27639;48.674;9.242;2023-09-07T07:35:29;23.80;54.00
21502;DHT22;27639;48.674;9.242;2023-09-07T07:37:55;24.00;53.20
21502;DHT22;27639;48.674;9.242;2023-09-07T07:40:20;24.20;53.10
21502;DHT22;27639;48.674;9.242;2023-09-07T07:42:47;24.40;52.70
21502;DHT22;27639;48.674;9.242;2023-09-07T07:45:13;24.50;52.60
21502;DHT22;27639;48.674;9.242;2023-09-07T07:47:40;24.60;52.20
21502;DHT22;27639;48.674;9.242;2023-09-07T07:50:06;24.50;52.20
21502;DHT22;27639;48.674;9.242;2023-09-07T07:52:32;24.60;52.20
21502;DHT22;27639;48.674;9.242;2023-09-07T07:54:57;24.60;51.90
21502;DHT22;27639;48.674;9.242;2023-09-07T07:57:23;24.80;51.90
21502;DHT22;27639;48.674;9.242;2023-09-07T07:59:48;25.00;51.60
21502;DHT22;27639;48.674;9.242;2023-09-07T08:02:14;25.10;51.40
21502;DHT22;27639;48.674;9.242;2023-09-07T08:04:40;25.20;51.60
21502;DHT22;27639;48.674;9.242;2023-09-07T08:07:05;25.20;51.40
21502;DHT22;27639;48.674;9.242;2023-09-07T08:09:34;25.20;51.30
21502;DHT22;27639;48.674;9.242;2023-09-07T08:11:59;25.20;51.20
21502;DHT22;27639;48.674;9.242;2023-09-07T08:14:28;25.30;51.10
21502;DHT22;27639;48.674;9.242;2023-09-07T08:16:54;25.30;50.90
21502;DHT22;27639;48.674;9.242;2023-09-07T08:19:19;25.40;51.00
21502;DHT22;27639;48.674;9.242;2023-09-07T08:21:46;25.40;50.90
21502;DHT22;27639;48.674;9.242;2023-09-07T08:24:12;25.50;50.90
21502;DHT22;27639;48.674;9.242;2023-09-07T08:26:37;25.50;50.70
21502;DHT22;27639;48.674;9.242;2023-09-07T08:29:04;25.60;50.70
21502;DHT22;27639;48.674;9.242;2023-09-07T08:31:34;25.70;50.40
21502;DHT22;27639;48.674;9.242;2023-09-07T08:34:05;25.60;50.10
21502;DHT22;27639;48.674;9.242;2023-09-07T08:36:31;25.40;50.20
21502;DHT22;27639;48.674;9.242;2023-09-07T08:39:01;25.50;50.30
21502;DHT22;27639;48.674;9.242;2023-09-07T08:41:31;25.50;50.30
21502;DHT22;27639;48.674;9.242;2023-09-07T08:43:57;25.50;50.30
21502;DHT22;27639;48.674;9.242;2023-09-07T08:46:23;25.50;50.60
21502;DHT22;27639;48.674;9.242;2023-09-07T08:48:50;25.70;50.40
21502;DHT22;27639;48.674;9.242;2023-09-07T08:51:18;25.80;51.20
21502;DHT22;27639;48.674;9.242;2023-09-07T08:53:44;25.90;50.00
21502;DHT22;27639;48.674;9.242;2023-09-07T08:56:12;25.80;50.20
21502;DHT22;27639;48.674;9.242;2023-09-07T08:58:38;26.00;49.70
21502;DHT22;27639;48.674;9.242;2023-09-07T09:01:05;26.00;49.80
21502;DHT22;27639;48.674;9.242;2023-09-07T09:03:31;26.10;50.00
21502;DHT22;27639;48.674;9.242;2023-09-07T09:05:57;26.20;49.40
21502;DHT22;27639;48.674;9.242;2023-09-07T09:08:23;26.30;49.30
21502;DHT22;27639;48.674;9.242;2023-09-07T09:11:01;26.10;49.20
21502;DHT22;27639;48.674;9.242;2023-09-07T09:13:30;26.10;49.70
21502;DHT22;27639;48.674;9.242;2023-09-07T09:15:59;26.20;49.50
21502;DHT22;27639;48.674;9.242;2023-09-07T09:18:25;26.30;49.80
21502;DHT22;27639;48.674;9.242;2023-09-07T09:20:52;26.40;49.60
21502;DHT22;27639;48.674;9.242;2023-09-07T09:23:18;26.50;49.90
21502;DHT22;27639;48.674;9.242;2023-09-07T09:25:44;26.50;49.30
21502;DHT22;27639;48.674;9.242;2023-09-07T09:28:10;26.50;49.20
21502;DHT22;27639;48.674;9.242;2023-09-07T09:30:38;26.60;49.20
21502;DHT22;27639;48.674;9.242;2023-09-07T09:33:05;26.60;49.00
21502;DHT22;27639;48.674;9.242;2023-09-07T09:35:31;26.60;49.20
21502;DHT22;27639;48.674;9.242;2023-09-07T09:38:01;26.60;49.50
21502;DHT22;27639;48.674;9.242;2023-09-07T09:40:33;26.70;49.50
21502;DHT22;27639;48.674;9.242;2023-09-07T09:43:01;26.80;49.40
21502;DHT22;27639;48.674;9.242;2023-09-07T09:45:27;26.90;49.30
21502;DHT22;27639;48.674;9.242;2023-09-07T09:47:54;27.00;49.00
21502;DHT22;27639;48.674;9.242;2023-09-07T09:50:24;27.00;49.40
21502;DHT22;27639;48.674;9.242;2023-09-07T09:52:52;27.00;49.60
21502;DHT22;27639;48.674;9.242;2023-09-07T09:55:18;27.10;49.20
21502;DHT22;27639;48.674;9.242;2023-09-07T09:57:44;27.30;48.90
21502;DHT22;27639;48.674;9.242;2023-09-07T10:00:11;27.40;48.70
21502;DHT22;27639;48.674;9.242;2023-09-07T10:03:37;27.50;48.60
21502;DHT22;27639;48.674;9.242;2023-09-07T10:05:37;27.60;48.30
21502;DHT22;27639;48.674;9.242;2023-09-07T10:08:13;27.60;48.10
21502;DHT22;27639;48.674;9.242;2023-09-07T10:10:41;27.60;47.90
21502;DHT22;27639;48.674;9.242;2023-09-07T10:13:07;27.50;48.40
21502;DHT22;27639;48.674;9.242;2023-09-07T10:15:33;27.50;48.60
21502;DHT22;27639;48.674;9.242;2023-09-07T10:20:55;27.70;48.40
21502;DHT22;27639;48.674;9.242;2023-09-07T10:23:22;27.80;48.30
21502;DHT22;27639;48.674;9.242;2023-09-07T10:25:53;27.90;48.30
21502;DHT22;27639;48.674;9.242;2023-09-07T10:28:23;28.00;48.10
21502;DHT22;27639;48.674;9.242;2023-09-07T10:33:24;28.20;48.00
21502;DHT22;27639;48.674;9.242;2023-09-07T10:35:50;28.30;47.80
21502;DHT22;27639;48.674;9.242;2023-09-07T10:38:16;28.30;47.60
21502;DHT22;27639;48.674;9.242;2023-09-07T10:40:44;28.30;48.40
21502;DHT22;27639;48.674;9.242;2023-09-07T10:43:10;28.30;48.10
21502;DHT22;27639;48.674;9.242;2023-09-07T10:45:36;28.40;47.70
21502;DHT22;27639;48.674;9.242;2023-09-07T10:48:02;28.40;47.70
21502;DHT22;27639;48.674;9.242;2023-09-07T10:50:29;28.40;48.10
21502;DHT22;27639;48.674;9.242;2023-09-07T10:52:55;28.60;48.00
21502;DHT22;27639;48.674;9.242;2023-09-07T10:55:21;28.70;47.80
21502;DHT22;27639;48.674;9.242;2023-09-07T10:57:47;28.80;47.70
21502;DHT22;27639;48.674;9.242;2023-09-07T11:00:14;28.90;47.10
21502;DHT22;27639;48.674;9.242;2023-09-07T11:02:41;29.00;47.40
21502;DHT22;27639;48.674;9.242;2023-09-07T11:05:07;28.90;47.20
21502;DHT22;27639;48.674;9.242;2023-09-07T11:07:33;29.00;47.20
21502;DHT22;27639;48.674;9.242;2023-09-07T11:10:00;29.00;47.10
21502;DHT22;27639;48.674;9.242;2023-09-07T11:12:26;29.10;47.30
21502;DHT22;27639;48.674;9.242;2023-09-07T11:14:52;29.20;47.10
21502;DHT22;27639;48.674;9.242;2023-09-07T11:17:18;29.30;46.80
21502;DHT22;27639;48.674;9.242;2023-09-07T11:19:44;29.40;46.70
21502;DHT22;27639;48.674;9.242;2023-09-07T11:22:10;29.30;46.90
21502;DHT22;27639;48.674;9.242;2023-09-07T11:24:36;29.40;46.70
21502;DHT22;27639;48.674;9.242;2023-09-07T11:27:02;29.50;46.30
21502;DHT22;27639;48.674;9.242;2023-09-07T11:29:33;29.50;46.80
21502;DHT22;27639;48.674;9.242;2023-09-07T11:32:09;29.60;46.60
21502;DHT22;27639;48.674;9.242;2023-09-07T11:34:46;29.60;46.40
21502;DHT22;27639;48.674;9.242;2023-09-07T11:37:12;29.70;46.00
21502;DHT22;27639;48.674;9.242;2023-09-07T11:39:38;29.80;45.70
21502;DHT22;27639;48.674;9.242;2023-09-07T11:42:04;29.80;45.70
21502;DHT22;27639;48.674;9.242;2023-09-07T11:44:29;29.70;45.70
21502;DHT22;27639;48.674;9.242;2023-09-07T11:46:55;29.80;45.80
21502;DHT22;27639;48.674;9.242;2023-09-07T11:49:21;29.80;45.70
21502;DHT22;27639;48.674;9.242;2023-09-07T11:51:47;29.90;45.50
21502;DHT22;27639;48.674;9.242;2023-09-07T11:54:13;30.00;45.50
21502;DHT22;27639;48.674;9.242;2023-09-07T11:56:38;30.10;45.00
21502;DHT22;27639;48.674;9.242;2023-09-07T11:59:08;30.20;44.70
21502;DHT22;27639;48.674;9.242;2023-09-07T12:01:34;30.20;44.40
21502;DHT22;27639;48.674;9.242;2023-09-07T12:04:00;30.20;44.30
21502;DHT22;27639;48.674;9.242;2023-09-07T12:06:26;30.30;44.50
21502;DHT22;27639;48.674;9.242;2023-09-07T12:09:05;30.30;44.10
21502;DHT22;27639;48.674;9.242;2023-09-07T12:11:38;30.40;44.10
21502;DHT22;27639;48.674;9.242;2023-09-07T12:14:04;30.40;44.10
21502;DHT22;27639;48.674;9.242;2023-09-07T12:16:30;30.50;43.70
21502;DHT22;27639;48.674;9.242;2023-09-07T12:18:56;30.50;44.00
21502;DHT22;27639;48.674;9.242;2023-09-07T12:21:21;30.50;43.70
21502;DHT22;27639;48.674;9.242;2023-09-07T12:23:47;30.50;43.60
21502;DHT22;27639;48.674;9.242;2023-09-07T12:26:13;30.50;43.20
21502;DHT22;27639;48.674;9.242;2023-09-07T12:28:46;30.50;43.30
21502;DHT22;27639;48.674;9.242;2023-09-07T12:31:12;30.50;43.10
21502;DHT22;27639;48.674;9.242;2023-09-07T12:33:39;30.50;43.00
21502;DHT22;27639;48.674;9.242;2023-09-07T12:36:05;30.70;43.10
21502;DHT22;27639;48.674;9.242;2023-09-07T12:38:34;30.80;43.00
21502;DHT22;27639;48.674;9.242;2023-09-07T12:41:00;30.90;42.40
21502;DHT22;27639;48.674;9.242;2023-09-07T12:43:25;31.00;42.40
21502;DHT22;27639;48.674;9.242;2023-09-07T12:45:51;31.00;41.90
21502;DHT22;27639;48.674;9.242;2023-09-07T12:48:17;31.00;41.90
21502;DHT22;27639;48.674;9.242;2023-09-07T12:50:42;31.00;41.80
21502;DHT22;27639;48.674;9.242;2023-09-07T12:53:08;31.00;41.80
21502;DHT22;27639;48.674;9.242;2023-09-07T12:55:34;31.10;41.70
21502;DHT22;27639;48.674;9.242;2023-09-07T12:58:00;31.10;41.50
21502;DHT22;27639;48.674;9.242;2023-09-07T13:00:26;31.10;41.50
21502;DHT22;27639;48.674;9.242;2023-09-07T13:02:52;31.10;41.50
21502;DHT22;27639;48.674;9.242;2023-09-07T13:05:18;31.20;41.30
21502;DHT22;27639;48.674;9.242;2023-09-07T13:07:45;31.20;40.80
21502;DHT22;27639;48.674;9.242;2023-09-07T13:10:11;31.30;40.70
21502;DHT22;27639;48.674;9.242;2023-09-07T13:12:36;31.40;40.70
21502;DHT22;27639;48.674;9.242;2023-09-07T13:15:03;31.50;40.10
21502;DHT22;27639;48.674;9.242;2023-09-07T13:17:29;31.50;39.90
21502;DHT22;27639;48.674;9.242;2023-09-07T13:19:54;31.50;39.60
21502;DHT22;27639;48.674;9.242;2023-09-07T13:22:20;31.50;39.80
21502;DHT22;27639;48.674;9.242;2023-09-07T13:24:46;31.60;39.70
21502;DHT22;27639;48.674;9.242;2023-09-07T13:27:12;31.70;39.50
21502;DHT22;27639;48.674;9.242;2023-09-07T13:29:37;31.70;39.30
21502;DHT22;27639;48.674;9.242;2023-09-07T13:32:03;31.60;38.90
21502;DHT22;27639;48.674;9.242;2023-09-07T13:34:29;31.70;38.90
21502;DHT22;27639;48.674;9.242;2023-09-07T13:36:55;31.80;39.20
21502;DHT22;27639;48.674;9.242;2023-09-07T13:39:23;31.80;39.30
21502;DHT22;27639;48.674;9.242;2023-09-07T13:41:48;31.70;39.60
21502;DHT22;27639;48.674;9.242;2023-09-07T13:44:15;31.80;39.20
21502;DHT22;27639;48.674;9.242;2023-09-07T13:46:41;31.90;39.60
21502;DHT22;27639;48.674;9.242;2023-09-07T13:49:07;32.00;39.10
21502;DHT22;27639;48.674;9.242;2023-09-07T13:51:32;32.10;39.10
21502;DHT22;27639;48.674;9.242;2023-09-07T13:54:04;32.10;39.30
21502;DHT22;27639;48.674;9.242;2023-09-07T13:56:30;32.10;39.30
21502;DHT22;27639;48.674;9.242;2023-09-07T13:58:55;32.10;39.10
21502;DHT22;27639;48.674;9.242;2023-09-07T14:01:21;32.10;39.30
21502;DHT22;27639;48.674;9.242;2023-09-07T14:03:47;32.20;39.10
21502;DHT22;27639;48.674;9.242;2023-09-07T14:06:13;32.10;39.00
21502;DHT22;27639;48.674;9.242;2023-09-07T14:08:38;32.10;39.20
21502;DHT22;27639;48.674;9.242;2023-09-07T14:11:04;32.10;38.80
21502;DHT22;27639;48.674;9.242;2023-09-07T14:13:31;32.20;38.40
21502;DHT22;27639;48.674;9.242;2023-09-07T14:15:59;32.20;38.60
21502;DHT22;27639;48.674;9.242;2023-09-07T14:18:25;32.30;38.80
21502;DHT22;27639;48.674;9.242;2023-09-07T14:20:50;32.30;38.80
21502;DHT22;27639;48.674;9.242;2023-09-07T14:23:17;32.30;38.70
21502;DHT22;27639;48.674;9.242;2023-09-07T14:25:46;32.40;39.40
21502;DHT22;27639;48.674;9.242;2023-09-07T14:28:13;32.40;38.80
21502;DHT22;27639;48.674;9.242;2023-09-07T14:30:39;32.40;39.30
21502;DHT22;27639;48.674;9.242;2023-09-07T14:33:04;32.40;38.50
21502;DHT22;27639;48.674;9.242;2023-09-07T14:35:30;32.40;38.80
21502;DHT22;27639;48.674;9.242;2023-09-07T14:37:56;32.40;38.80
21502;DHT22;27639;48.674;9.242;2023-09-07T14:40:22;32.40;38.30
21502;DHT22;27639;48.674;9.242;2023-09-07T14:42:49;32.40;38.40
21502;DHT22;27639;48.674;9.242;2023-09-07T14:45:16;32.30;38.40
21502;DHT22;27639;48.674;9.242;2023-09-07T14:47:41;32.30;38.60
21502;DHT22;27639;48.674;9.242;2023-09-07T14:50:08;32.30;38.30
21502;DHT22;27639;48.674;9.242;2023-09-07T14:52:34;32.40;37.90
21502;DHT22;27639;48.674;9.242;2023-09-07T14:55:06;32.30;38.00
21502;DHT22;27639;48.674;9.242;2023-09-07T14:57:32;32.40;37.70
21502;DHT22;27639;48.674;9.242;2023-09-07T14:59:59;32.40;37.20
21502;DHT22;27639;48.674;9.242;2023-09-07T15:02:25;32.30;36.90
21502;DHT22;27639;48.674;9.242;2023-09-07T15:04:50;32.20;36.90
21502;DHT22;27639;48.674;9.242;2023-09-07T15:07:16;32.20;36.00
21502;DHT22;27639;48.674;9.242;2023-09-07T15:09:42;32.20;35.90
21502;DHT22;27639;48.674;9.242;2023-09-07T15:12:07;32.20;36.00
21502;DHT22;27639;48.674;9.242;2023-09-07T15:14:33;32.10;36.50
21502;DHT22;27639;48.674;9.242;2023-09-07T15:16:58;32.00;36.80
21502;DHT22;27639;48.674;9.242;2023-09-07T15:19:24;32.00;37.10
21502;DHT22;27639;48.674;9.242;2023-09-07T15:21:50;32.00;37.20
21502;DHT22;27639;48.674;9.242;2023-09-07T15:24:17;32.00;37.10
21502;DHT22;27639;48.674;9.242;2023-09-07T15:26:44;32.10;37.40
21502;DHT22;27639;48.674;9.242;2023-09-07T15:29:10;32.10;37.30
21502;DHT22;27639;48.674;9.242;2023-09-07T15:31:36;31.90;37.40
21502;DHT22;27639;48.674;9.242;2023-09-07T15:34:01;32.00;37.90